createdAt,value
2019-02-20T00:00:09.678Z,5.80
2019-02-20T00:02:38.302Z,5.90
2019-02-20T00:05:08.195Z,5.90
2019-02-20T00:07:36.803Z,5.90
2019-02-20T00:10:05.809Z,5.90
2019-02-20T00:12:34.727Z,5.70
2019-02-20T00:15:03.538Z,5.70
2019-02-20T00:17:32.214Z,5.60
2019-02-20T00:20:00.953Z,5.50
2019-02-20T00:22:29.590Z,5.40
2019-02-20T00:24:58.564Z,5.40
2019-02-20T00:27:27.208Z,5.40
2019-02-20T00:29:55.801Z,5.80
2019-02-20T00:32:24.524Z,5.30
2019-02-20T00:34:53.266Z,5.20
2019-02-20T00:37:22.110Z,5.20
2019-02-20T00:39:50.859Z,5.10
2019-02-20T00:42:19.437Z,5.10
2019-02-20T00:44:55.474Z,5.10
2019-02-20T00:47:40.683Z,5.10
2019-02-20T00:50:09.662Z,5.10
2019-02-20T00:52:51.935Z,5.10
2019-02-20T00:55:20.569Z,5.10
2019-02-20T00:57:49.202Z,5.10
2019-02-20T01:00:17.941Z,5.10
2019-02-20T01:02:46.573Z,5.20
2019-02-20T01:05:15.394Z,5.20
2019-02-20T01:07:44.148Z,5.30
2019-02-20T01:10:12.825Z,5.30
2019-02-20T01:12:41.870Z,5.30
2019-02-20T01:15:11.757Z,5.20
2019-02-20T01:17:40.755Z,5.30
2019-02-20T01:20:10.688Z,5.30
2019-02-20T01:22:39.456Z,5.30
2019-02-20T01:25:08.417Z,5.30
2019-02-20T01:27:37.328Z,5.40
2019-02-20T01:30:08.849Z,5.30
2019-02-20T01:32:37.527Z,5.30
2019-02-20T01:35:06.865Z,5.20
2019-02-20T01:37:35.606Z,5.10
2019-02-20T01:40:05.517Z,5.00
2019-02-20T01:42:34.100Z,5.00
2019-02-20T01:45:02.778Z,4.90
2019-02-20T01:47:31.394Z,4.80
2019-02-20T01:50:00.029Z,4.80
2019-02-20T01:52:28.686Z,4.70
2019-02-20T01:54:57.494Z,4.80
2019-02-20T01:57:26.184Z,4.70
2019-02-20T01:59:54.960Z,4.60
2019-02-20T02:02:23.959Z,4.60
2019-02-20T02:04:53.049Z,4.60
2019-02-20T02:07:21.689Z,4.50
2019-02-20T02:09:50.279Z,4.50
2019-02-20T02:12:19.154Z,4.50
2019-02-20T02:14:47.850Z,4.50
2019-02-20T02:17:16.584Z,4.50
2019-02-20T02:19:45.259Z,4.50
2019-02-20T02:22:13.895Z,4.50
2019-02-20T02:24:42.678Z,4.60
2019-02-20T02:27:11.377Z,4.60
2019-02-20T02:29:40.017Z,4.60
2019-02-20T02:32:08.966Z,4.70
2019-02-20T02:34:37.671Z,4.70
2019-02-20T02:37:06.253Z,4.60
2019-02-20T02:39:34.891Z,4.70
2019-02-20T02:42:03.621Z,4.70
2019-02-20T02:44:32.613Z,4.70
2019-02-20T02:47:01.195Z,4.70
2019-02-20T02:49:29.874Z,4.70
2019-02-20T02:51:58.491Z,4.60
2019-02-20T02:54:27.436Z,4.60
2019-02-20T02:56:56.416Z,4.60
2019-02-20T02:59:25.066Z,4.50
2019-02-20T03:01:53.913Z,4.50
2019-02-20T03:04:22.659Z,4.40
2019-02-20T03:06:51.262Z,4.30
2019-02-20T03:09:21.648Z,4.20
2019-02-20T03:11:50.291Z,4.20
2019-02-20T03:14:19.358Z,4.10
2019-02-20T03:16:47.944Z,4.10
2019-02-20T03:19:16.934Z,4.10
2019-02-20T03:21:45.545Z,4.10
2019-02-20T03:24:14.141Z,4.10
2019-02-20T03:26:42.726Z,4.20
2019-02-20T03:29:11.448Z,4.20
2019-02-20T03:31:40.126Z,4.20
2019-02-20T03:34:09.166Z,4.20
2019-02-20T03:36:37.951Z,4.20
2019-02-20T03:39:07.266Z,4.30
2019-02-20T03:41:36.236Z,4.40
2019-02-20T03:44:05.392Z,4.40
2019-02-20T03:46:34.013Z,4.50
2019-02-20T03:49:02.623Z,4.50
2019-02-20T03:51:31.269Z,4.50
2019-02-20T03:53:59.950Z,4.50
2019-02-20T03:56:28.712Z,4.60
2019-02-20T03:58:57.416Z,4.60
2019-02-20T04:01:26.182Z,4.60
2019-02-20T04:03:55.192Z,4.60
2019-02-20T04:06:23.910Z,4.60
2019-02-20T04:08:52.543Z,4.60
2019-02-20T04:11:21.683Z,4.60
2019-02-20T04:13:50.319Z,4.70
2019-02-20T04:16:19.047Z,4.70
2019-02-20T04:18:47.648Z,4.70
2019-02-20T04:21:16.374Z,4.70
2019-02-20T04:23:45.616Z,4.70
2019-02-20T04:26:14.186Z,4.70
2019-02-20T04:28:42.789Z,4.70
2019-02-20T04:31:11.429Z,4.70
2019-02-20T04:33:40.171Z,4.70
2019-02-20T04:36:08.894Z,4.70
2019-02-20T04:38:37.489Z,4.60
2019-02-20T04:41:06.127Z,4.70
2019-02-20T04:43:34.741Z,4.70
2019-02-20T04:46:03.472Z,4.80
2019-02-20T04:48:32.108Z,4.90
2019-02-20T04:51:01.144Z,5.00
2019-02-20T04:53:29.705Z,5.00
2019-02-20T04:55:58.474Z,4.90
2019-02-20T04:58:27.480Z,4.90
2019-02-20T05:00:56.291Z,4.90
2019-02-20T05:03:25.078Z,4.90
2019-02-20T05:05:53.828Z,4.80
2019-02-20T05:08:22.504Z,4.90
2019-02-20T05:10:51.202Z,4.80
2019-02-20T05:13:19.875Z,4.90
2019-02-20T05:15:48.709Z,4.90
2019-02-20T05:18:17.699Z,4.90
2019-02-20T05:20:46.266Z,5.00
2019-02-20T05:23:15.020Z,5.00
2019-02-20T05:25:43.852Z,4.90
2019-02-20T05:28:12.490Z,4.80
2019-02-20T05:30:41.589Z,4.80
2019-02-20T05:33:10.172Z,4.80
2019-02-20T05:35:38.784Z,4.70
2019-02-20T05:38:07.364Z,4.70
2019-02-20T05:40:36.013Z,4.60
2019-02-20T05:43:04.716Z,4.50
2019-02-20T05:45:33.381Z,4.50
2019-02-20T05:48:02.492Z,4.40
2019-02-20T05:50:31.222Z,4.40
2019-02-20T05:53:00.306Z,4.30
2019-02-20T05:55:28.942Z,4.30
2019-02-20T05:57:57.625Z,4.30
2019-02-20T06:00:26.382Z,4.30
2019-02-20T06:02:55.141Z,4.30
2019-02-20T06:05:23.781Z,4.30
2019-02-20T06:07:52.509Z,4.20
2019-02-20T06:10:21.092Z,4.20
2019-02-20T06:12:49.625Z,4.10
2019-02-20T06:15:18.357Z,4.10
2019-02-20T06:17:47.146Z,4.20
2019-02-20T06:20:16.242Z,4.20
2019-02-20T06:22:44.921Z,4.30
2019-02-20T06:25:13.943Z,4.40
2019-02-20T06:27:42.598Z,4.40
2019-02-20T06:30:12.571Z,4.50
2019-02-20T06:32:41.400Z,4.60
2019-02-20T06:35:10.186Z,4.40
2019-02-20T06:37:39.075Z,4.70
2019-02-20T06:40:10.018Z,4.60
2019-02-20T06:42:38.583Z,4.60
2019-02-20T06:45:09.742Z,4.70
2019-02-20T06:47:38.376Z,4.70
2019-02-20T06:50:08.212Z,4.70
2019-02-20T06:52:37.024Z,4.70
2019-02-20T06:55:08.877Z,4.70
2019-02-20T06:57:37.664Z,4.80
2019-02-20T07:00:09.364Z,4.80
2019-02-20T07:02:38.294Z,4.80
2019-02-20T07:05:26.552Z,4.80
2019-02-20T07:08:16.140Z,4.80
2019-02-20T07:10:56.544Z,4.90
2019-02-20T07:13:28.709Z,5.00
2019-02-20T07:16:03.380Z,5.10
2019-02-20T07:18:55.808Z,5.20
2019-02-20T07:21:42.685Z,5.10
2019-02-20T07:24:29.395Z,5.20
2019-02-20T07:27:22.390Z,5.40
2019-02-20T07:29:59.209Z,5.40
2019-02-20T07:32:28.051Z,5.50
2019-02-20T07:34:56.936Z,5.60
2019-02-20T07:37:25.727Z,5.70
2019-02-20T07:39:54.721Z,5.70
2019-02-20T07:42:23.570Z,5.70
2019-02-20T07:44:52.293Z,5.80
2019-02-20T07:47:21.389Z,5.80
2019-02-20T07:49:50.261Z,5.80
2019-02-20T07:52:19.019Z,5.80
2019-02-20T07:54:48.158Z,6.00
2019-02-20T07:57:16.712Z,6.40
2019-02-20T07:59:45.491Z,6.40
2019-02-20T08:02:14.621Z,6.20
2019-02-20T08:04:43.366Z,6.20
2019-02-20T08:07:12.100Z,6.30
2019-02-20T08:09:40.734Z,6.90
2019-02-20T08:12:09.415Z,7.50
2019-02-20T08:14:38.553Z,8.20
2019-02-20T08:17:07.414Z,9.30
2019-02-20T08:19:36.520Z,9.70
2019-02-20T08:22:05.281Z,9.70
2019-02-20T08:24:33.974Z,9.30
2019-02-20T08:27:02.705Z,9.00
2019-02-20T08:29:31.741Z,8.70
2019-02-20T08:32:00.428Z,8.80
2019-02-20T08:34:29.417Z,8.70
2019-02-20T08:36:58.146Z,8.80
2019-02-20T08:39:26.932Z,8.50
2019-02-20T08:41:55.616Z,8.70
2019-02-20T08:44:24.254Z,8.70
2019-02-20T08:46:52.944Z,8.90
2019-02-20T08:49:21.669Z,9.10
2019-02-20T08:51:50.310Z,9.30
2019-02-20T08:54:19.011Z,9.70
2019-02-20T08:56:47.706Z,9.90
2019-02-20T08:59:16.508Z,10.10
2019-02-20T09:01:45.072Z,10.20
2019-02-20T09:04:13.732Z,9.90
2019-02-20T09:06:42.361Z,9.90
2019-02-20T09:09:10.960Z,10.20
2019-02-20T09:11:39.556Z,10.20
2019-02-20T09:14:08.674Z,10.00
2019-02-20T09:16:37.464Z,10.10
2019-02-20T09:19:06.190Z,10.50
2019-02-20T09:21:34.873Z,10.60
2019-02-20T09:24:03.558Z,10.50
2019-02-20T09:26:32.540Z,10.40
2019-02-20T09:29:01.551Z,10.40
2019-02-20T09:31:30.606Z,10.60
2019-02-20T09:33:59.275Z,10.60
2019-02-20T09:36:27.960Z,10.70
2019-02-20T09:38:55.841Z,12.00
2019-02-20T09:41:23.707Z,12.60
2019-02-20T09:43:52.826Z,13.10
2019-02-20T09:46:21.378Z,13.50
2019-02-20T09:48:50.604Z,13.10
2019-02-20T09:51:19.313Z,12.50
2019-02-20T09:53:47.911Z,12.30
2019-02-20T09:56:17.070Z,13.50
2019-02-20T09:58:45.753Z,13.40
2019-02-20T10:01:14.327Z,12.80
2019-02-20T10:03:42.978Z,12.80
2019-02-20T10:06:12.967Z,13.10
2019-02-20T10:08:41.780Z,13.40
2019-02-20T10:11:10.399Z,13.10
2019-02-20T10:13:38.975Z,13.20
2019-02-20T10:16:07.792Z,12.60
2019-02-20T10:18:36.456Z,12.50
2019-02-20T10:21:05.506Z,12.60
2019-02-20T10:23:34.542Z,12.80
2019-02-20T10:26:03.107Z,12.90
2019-02-20T10:28:31.807Z,12.60
2019-02-20T10:31:00.490Z,13.00
2019-02-20T10:33:29.177Z,13.40
2019-02-20T10:35:57.827Z,13.40
2019-02-20T10:38:26.505Z,13.20
2019-02-20T10:40:55.189Z,13.10
2019-02-20T10:43:24.221Z,12.40
2019-02-20T10:45:52.975Z,12.50
2019-02-20T10:48:21.750Z,12.50
2019-02-20T10:50:50.897Z,12.40
2019-02-20T10:53:19.941Z,12.00
2019-02-20T10:55:48.671Z,12.20
2019-02-20T10:58:17.558Z,12.50
2019-02-20T11:00:46.132Z,12.50
2019-02-20T11:03:14.822Z,12.40
2019-02-20T11:05:43.470Z,12.30
2019-02-20T11:08:12.306Z,12.10
2019-02-20T11:10:40.940Z,12.00
2019-02-20T11:13:09.958Z,12.10
2019-02-20T11:15:39.027Z,12.20
2019-02-20T11:18:07.857Z,12.10
2019-02-20T11:20:36.548Z,12.40
2019-02-20T11:23:05.284Z,12.50
2019-02-20T11:25:33.869Z,12.70
2019-02-20T11:28:02.466Z,12.70
2019-02-20T11:30:31.133Z,12.90
2019-02-20T11:32:59.866Z,12.80
2019-02-20T11:35:28.507Z,13.20
2019-02-20T11:37:57.233Z,13.40
2019-02-20T11:40:25.810Z,13.40
2019-02-20T11:42:54.427Z,13.40
2019-02-20T11:45:23.032Z,13.60
2019-02-20T11:47:51.950Z,13.30
2019-02-20T11:50:21.608Z,13.00
2019-02-20T11:52:51.556Z,13.00
2019-02-20T11:55:20.127Z,13.40
2019-02-20T11:57:49.264Z,13.30
2019-02-20T12:00:19.437Z,12.90
2019-02-20T12:02:48.067Z,13.10
2019-02-20T12:05:17.167Z,13.10
2019-02-20T12:07:45.806Z,13.40
2019-02-20T12:10:16.528Z,13.40
2019-02-20T12:12:45.364Z,13.40
2019-02-20T12:15:14.207Z,13.30
2019-02-20T12:17:43.075Z,13.40
2019-02-20T12:20:12.231Z,13.10
2019-02-20T12:22:41.023Z,13.10
2019-02-20T12:25:10.485Z,13.00
2019-02-20T12:27:39.315Z,13.10
2019-02-20T12:30:10.661Z,13.10
2019-02-20T12:32:39.731Z,13.20
2019-02-20T12:35:09.663Z,13.00
2019-02-20T12:37:38.312Z,12.80
2019-02-20T12:40:09.218Z,12.70
2019-02-20T12:42:37.877Z,12.60
2019-02-20T12:45:08.447Z,12.60
2019-02-20T12:47:37.295Z,12.80
2019-02-20T12:50:08.946Z,12.90
2019-02-20T12:52:37.492Z,12.90
2019-02-20T12:55:07.484Z,12.70
2019-02-20T12:57:36.222Z,13.00
2019-02-20T13:00:08.144Z,13.10
2019-02-20T13:02:36.798Z,13.00
2019-02-20T13:05:07.029Z,12.90
2019-02-20T13:07:35.774Z,12.80
2019-02-20T13:10:05.181Z,12.70
2019-02-20T13:12:34.063Z,12.80
2019-02-20T13:15:02.854Z,13.00
2019-02-20T13:17:31.636Z,13.10
2019-02-20T13:20:00.340Z,13.20
2019-02-20T13:22:28.903Z,13.10
2019-02-20T13:24:57.497Z,13.00
2019-02-20T13:27:26.376Z,12.80
2019-02-20T13:29:55.470Z,12.90
2019-02-20T13:32:24.153Z,13.00
2019-02-20T13:34:52.793Z,12.90
2019-02-20T13:37:21.461Z,12.70
2019-02-20T13:39:52.066Z,12.70
2019-02-20T13:42:20.412Z,12.70
2019-02-20T13:44:49.069Z,12.80
2019-02-20T13:47:18.205Z,12.90
2019-02-20T13:49:47.299Z,12.70
2019-02-20T13:52:16.044Z,12.50
2019-02-20T13:54:44.832Z,12.60
2019-02-20T13:57:13.965Z,12.30
2019-02-20T13:59:42.608Z,12.20
2019-02-20T14:02:11.626Z,12.30
2019-02-20T14:04:40.383Z,12.40
2019-02-20T14:07:09.217Z,12.40
2019-02-20T14:09:37.836Z,12.60
2019-02-20T14:12:07.228Z,12.80
2019-02-20T14:14:36.248Z,12.80
2019-02-20T14:17:05.031Z,12.50
2019-02-20T14:19:33.871Z,12.40
2019-02-20T14:22:02.551Z,12.20
2019-02-20T14:24:31.700Z,12.20
2019-02-20T14:27:00.390Z,12.30
2019-02-20T14:29:29.306Z,12.30
2019-02-20T14:31:57.923Z,12.30
2019-02-20T14:34:28.309Z,12.20
2019-02-20T14:36:56.864Z,12.10
2019-02-20T14:39:25.594Z,12.10
2019-02-20T14:41:54.225Z,12.10
2019-02-20T14:44:22.855Z,12.00
2019-02-20T14:46:51.954Z,12.00
2019-02-20T14:49:21.006Z,11.80
2019-02-20T14:51:49.691Z,11.90
2019-02-20T14:54:18.420Z,12.00
2019-02-20T14:56:47.365Z,12.00
2019-02-20T14:59:16.400Z,12.10
2019-02-20T15:01:45.186Z,12.30
2019-02-20T15:04:14.030Z,12.20
2019-02-20T15:06:42.760Z,12.20
2019-02-20T15:09:11.550Z,12.20
2019-02-20T15:11:40.200Z,12.00
2019-02-20T15:14:09.018Z,12.00
2019-02-20T15:16:37.658Z,12.00
2019-02-20T15:19:06.751Z,12.00
2019-02-20T15:21:35.695Z,12.00
2019-02-20T15:24:04.563Z,12.00
2019-02-20T15:26:33.150Z,11.80
2019-02-20T15:29:01.944Z,11.80
2019-02-20T15:31:33.760Z,11.90
2019-02-20T15:34:00.950Z,11.90
2019-02-20T15:36:29.699Z,11.90
2019-02-20T15:38:58.379Z,12.00
2019-02-20T15:41:27.005Z,12.10
2019-02-20T15:43:55.978Z,12.00
2019-02-20T15:46:25.060Z,11.90
2019-02-20T15:48:53.829Z,11.80
2019-02-20T15:51:22.970Z,11.70
2019-02-20T15:53:51.655Z,11.60
2019-02-20T15:56:20.278Z,11.60
2019-02-20T15:58:49.023Z,11.10
2019-02-20T16:01:17.810Z,11.70
2019-02-20T16:03:46.558Z,11.70
2019-02-20T16:06:15.394Z,11.70
2019-02-20T16:08:44.580Z,11.70
2019-02-20T16:11:13.373Z,11.60
2019-02-20T16:13:42.212Z,11.60
2019-02-20T16:16:10.894Z,11.50
2019-02-20T16:18:39.548Z,11.50
2019-02-20T16:21:08.411Z,11.40
2019-02-20T16:23:37.058Z,11.30
2019-02-20T16:26:05.736Z,11.40
2019-02-20T16:28:34.976Z,11.30
2019-02-20T16:31:03.663Z,11.20
2019-02-20T16:33:32.317Z,11.20
2019-02-20T16:36:01.029Z,11.20
2019-02-20T16:38:29.819Z,11.10
2019-02-20T16:40:58.763Z,11.10
2019-02-20T16:43:27.491Z,11.00
2019-02-20T16:45:56.140Z,11.00
2019-02-20T16:48:24.963Z,10.90
2019-02-20T16:50:53.670Z,10.80
2019-02-20T16:53:22.392Z,10.80
2019-02-20T16:55:51.121Z,10.80
2019-02-20T16:58:20.167Z,10.80
2019-02-20T17:00:49.372Z,10.60
2019-02-20T17:03:18.511Z,10.60
2019-02-20T17:05:48.523Z,10.60
2019-02-20T17:08:18.033Z,10.50
2019-02-20T17:10:47.105Z,10.50
2019-02-20T17:13:16.504Z,10.40
2019-02-20T17:15:47.417Z,10.20
2019-02-20T17:18:16.327Z,10.20
2019-02-20T17:20:45.399Z,10.10
2019-02-20T17:23:14.532Z,9.90
2019-02-20T17:25:43.451Z,9.90
2019-02-20T17:28:12.514Z,9.80
2019-02-20T17:30:41.154Z,9.80
2019-02-20T17:33:09.840Z,9.80
2019-02-20T17:35:38.974Z,9.80
2019-02-20T17:38:07.690Z,9.80
2019-02-20T17:40:36.818Z,9.80
2019-02-20T17:43:06.856Z,9.80
2019-02-20T17:45:36.172Z,9.80
2019-02-20T17:48:05.224Z,9.80
2019-02-20T17:50:34.053Z,9.80
2019-02-20T17:53:02.598Z,9.90
2019-02-20T17:55:31.196Z,9.80
2019-02-20T17:58:00.038Z,9.80
2019-02-20T18:00:31.617Z,9.80
2019-02-20T18:03:00.519Z,9.80
2019-02-20T18:05:29.186Z,9.70
2019-02-20T18:07:57.886Z,9.70
2019-02-20T18:10:26.606Z,9.60
2019-02-20T18:12:55.184Z,9.60
2019-02-20T18:15:24.382Z,9.50
2019-02-20T18:17:53.166Z,9.60
2019-02-20T18:20:21.779Z,9.60
2019-02-20T18:22:50.542Z,9.60
2019-02-20T18:25:19.162Z,9.60
2019-02-20T18:27:47.820Z,9.60
2019-02-20T18:30:16.653Z,9.60
2019-02-20T18:32:47.305Z,9.60
2019-02-20T18:35:17.916Z,9.60
2019-02-20T18:37:46.690Z,9.60
2019-02-20T18:40:18.549Z,9.60
2019-02-20T18:42:47.231Z,9.60
2019-02-20T18:45:16.287Z,9.60
2019-02-20T18:47:45.014Z,9.70
2019-02-20T18:50:15.617Z,9.70
2019-02-20T18:52:44.270Z,9.60
2019-02-20T18:55:13.839Z,9.60
2019-02-20T18:57:42.584Z,9.50
2019-02-20T19:00:19.336Z,9.50
2019-02-20T19:02:48.161Z,9.50
2019-02-20T19:05:18.901Z,9.40
2019-02-20T19:07:47.841Z,9.50
2019-02-20T19:10:38.252Z,9.60
2019-02-20T19:13:29.656Z,9.60
2019-02-20T19:16:02.083Z,9.50
2019-02-20T19:18:59.997Z,9.60
2019-02-20T19:21:43.019Z,9.50
2019-02-20T19:24:26.776Z,9.50
2019-02-20T19:27:04.266Z,9.40
2019-02-20T19:29:38.824Z,9.30
2019-02-20T19:32:10.587Z,9.20
2019-02-20T19:34:42.341Z,9.00
2019-02-20T19:37:20.246Z,8.90
2019-02-20T19:40:10.474Z,8.80
2019-02-20T19:42:45.261Z,8.70
2019-02-20T19:45:39.889Z,8.60
2019-02-20T19:48:23.636Z,8.60
2019-02-20T19:50:56.861Z,8.50
2019-02-20T19:53:31.208Z,8.30
2019-02-20T19:56:07.535Z,8.20
2019-02-20T19:58:38.946Z,8.20
2019-02-20T20:01:28.626Z,8.20
2019-02-20T20:04:06.045Z,8.20
2019-02-20T20:06:56.097Z,8.10
2019-02-20T20:09:33.571Z,8.10
2019-02-20T20:12:11.224Z,8.00
2019-02-20T20:15:04.797Z,7.90
2019-02-20T20:17:59.244Z,7.90
2019-02-20T20:20:45.713Z,7.80
2019-02-20T20:23:35.899Z,7.90
2019-02-20T20:26:36.299Z,7.80
2019-02-20T20:29:24.626Z,7.70
2019-02-20T20:32:14.889Z,7.50
2019-02-20T20:35:03.755Z,7.50
2019-02-20T20:37:46.091Z,7.50
2019-02-20T20:40:48.907Z,7.50
2019-02-20T20:43:23.652Z,7.40
2019-02-20T20:46:07.602Z,7.40
2019-02-20T20:48:45.160Z,7.30
2019-02-20T20:51:40.668Z,7.30
2019-02-20T20:54:27.588Z,7.30
2019-02-20T20:57:26.718Z,7.20
2019-02-20T21:00:33.086Z,7.10
2019-02-20T21:03:04.929Z,7.20
2019-02-20T21:05:45.580Z,7.20
2019-02-20T21:08:17.426Z,7.30
2019-02-20T21:10:49.177Z,7.30
2019-02-20T21:13:37.569Z,7.20
2019-02-20T21:16:27.341Z,7.30
2019-02-20T21:19:20.962Z,7.20
2019-02-20T21:21:47.202Z,7.30
2019-02-20T21:24:41.534Z,7.20
2019-02-20T21:27:40.216Z,7.20
2019-02-20T21:30:32.892Z,7.20
2019-02-20T21:33:04.574Z,7.10
2019-02-20T21:35:39.447Z,7.10
2019-02-20T21:38:46.328Z,7.10
2019-02-20T21:41:29.609Z,7.00
2019-02-20T21:44:19.493Z,7.00
2019-02-20T21:46:54.230Z,6.90
2019-02-20T21:49:34.778Z,6.90
2019-02-20T21:52:18.458Z,7.00
2019-02-20T21:55:06.554Z,7.00
2019-02-20T21:57:50.090Z,7.00
2019-02-20T22:00:24.509Z,6.90
2019-02-20T22:02:56.306Z,6.70
2019-02-20T22:05:48.873Z,6.80
2019-02-20T22:08:23.575Z,6.70
2019-02-20T22:11:14.992Z,6.70
2019-02-20T22:14:09.178Z,6.70
2019-02-20T22:16:49.452Z,6.70
2019-02-20T22:19:54.537Z,6.70
2019-02-20T22:22:35.035Z,6.60
2019-02-20T22:25:28.147Z,6.60
2019-02-20T22:28:20.408Z,6.60
2019-02-20T22:30:57.547Z,6.50
2019-02-20T22:33:29.665Z,6.30
2019-02-20T22:36:18.015Z,6.20
2019-02-20T22:38:52.844Z,6.10
2019-02-20T22:41:41.700Z,6.10
2019-02-20T22:44:31.435Z,6.30
2019-02-20T22:47:14.820Z,6.40
2019-02-20T22:49:49.184Z,6.40
2019-02-20T22:52:26.644Z,6.40
2019-02-20T22:55:13.627Z,6.40
2019-02-20T22:58:04.312Z,6.40
2019-02-20T23:00:43.441Z,6.40
2019-02-20T23:03:18.282Z,6.40
2019-02-20T23:05:56.244Z,6.40
2019-02-20T23:08:31.014Z,6.30
2019-02-20T23:11:27.405Z,6.20
2019-02-20T23:14:02.641Z,6.10
2019-02-20T23:16:31.945Z,6.00
2019-02-20T23:19:00.676Z,6.10
2019-02-20T23:21:29.354Z,6.00
2019-02-20T23:23:58.142Z,6.00
2019-02-20T23:26:26.791Z,6.00
2019-02-20T23:28:55.510Z,6.00
2019-02-20T23:31:24.151Z,6.00
2019-02-20T23:33:53.406Z,6.00
2019-02-20T23:36:22.046Z,5.90
2019-02-20T23:38:50.761Z,6.00
2019-02-20T23:41:19.402Z,5.90
2019-02-20T23:43:48.202Z,5.80
2019-02-20T23:46:16.988Z,5.70
2019-02-20T23:48:46.009Z,5.70
2019-02-20T23:51:14.573Z,5.80
2019-02-20T23:53:43.289Z,5.70
2019-02-20T23:56:11.915Z,5.70
2019-02-20T23:58:40.644Z,5.70
